createdAt,value
2017-08-14T00:00:30.881Z,60.10
2017-08-14T00:01:30.862Z,59.88
2017-08-14T00:02:30.836Z,60.10
2017-08-14T00:03:30.815Z,60.20
2017-08-14T00:04:30.813Z,60.00
2017-08-14T00:05:30.773Z,59.81
2017-08-14T00:06:30.749Z,59.62
2017-08-14T00:07:30.730Z,59.43
2017-08-14T00:08:30.709Z,59.72
2017-08-14T00:09:30.682Z,59.23
2017-08-14T00:10:30.661Z,59.33
2017-08-14T00:11:30.639Z,59.33
2017-08-14T00:12:30.626Z,59.04
2017-08-14T00:13:30.599Z,59.23
2017-08-14T00:14:30.581Z,59.72
2017-08-14T00:15:30.557Z,59.52
2017-08-14T00:16:30.536Z,59.43
2017-08-14T00:17:30.510Z,59.43
2017-08-14T00:18:30.486Z,59.72
2017-08-14T00:19:30.466Z,59.62
2017-08-14T00:20:30.444Z,59.81
2017-08-14T00:21:30.418Z,59.52
2017-08-14T00:22:30.395Z,59.43
2017-08-14T00:23:30.376Z,59.72
2017-08-14T00:24:30.355Z,59.33
2017-08-14T00:25:30.329Z,59.23
2017-08-14T00:26:30.309Z,59.33
2017-08-14T00:27:30.288Z,58.95
2017-08-14T00:28:30.268Z,59.33
2017-08-14T00:29:30.241Z,59.33
2017-08-14T00:30:30.220Z,58.95
2017-08-14T00:31:30.196Z,59.72
2017-08-14T00:32:30.178Z,59.91
2017-08-14T00:33:30.155Z,59.72
2017-08-14T00:34:30.136Z,59.72
2017-08-14T00:35:30.113Z,59.43
2017-08-14T00:36:30.089Z,59.72
2017-08-14T00:37:30.064Z,59.52
2017-08-14T00:38:30.043Z,59.72
2017-08-14T00:39:30.025Z,60.00
2017-08-14T00:40:30.003Z,59.62
2017-08-14T00:41:29.979Z,60.10
2017-08-14T00:42:29.958Z,59.72
2017-08-14T00:43:29.940Z,59.91
2017-08-14T00:44:29.914Z,59.72
2017-08-14T00:45:29.891Z,60.20
2017-08-14T00:46:29.868Z,59.81
2017-08-14T00:47:29.848Z,60.20
2017-08-14T00:48:29.822Z,59.43
2017-08-14T00:49:29.799Z,59.62
2017-08-14T00:50:29.781Z,60.00
2017-08-14T00:51:29.756Z,60.30
2017-08-14T00:52:29.736Z,60.20
2017-08-14T00:53:29.714Z,60.39
2017-08-14T00:54:29.691Z,60.00
2017-08-14T00:55:29.669Z,60.20
2017-08-14T00:56:29.649Z,60.30
2017-08-14T00:57:29.627Z,59.91
2017-08-14T00:58:29.607Z,59.72
2017-08-14T00:59:29.583Z,60.00
2017-08-14T01:00:29.556Z,59.72
2017-08-14T01:01:29.534Z,59.91
2017-08-14T01:02:29.516Z,60.10
2017-08-14T01:03:29.490Z,60.30
2017-08-14T01:04:29.472Z,60.20
2017-08-14T01:05:29.451Z,59.81
2017-08-14T01:06:29.425Z,60.30
2017-08-14T01:07:29.404Z,60.07
2017-08-14T01:08:29.379Z,60.07
2017-08-14T01:09:29.357Z,60.17
2017-08-14T01:10:29.334Z,60.20
2017-08-14T01:11:29.316Z,59.88
2017-08-14T01:12:29.293Z,59.91
2017-08-14T01:13:29.270Z,59.72
2017-08-14T01:14:29.247Z,60.27
2017-08-14T01:15:29.224Z,60.07
2017-08-14T01:16:29.204Z,59.88
2017-08-14T01:17:29.182Z,59.81
2017-08-14T01:18:29.159Z,59.78
2017-08-14T01:19:29.136Z,59.72
2017-08-14T01:20:29.114Z,59.69
2017-08-14T01:21:29.095Z,59.59
2017-08-14T01:22:29.069Z,59.88
2017-08-14T01:23:29.046Z,59.88
2017-08-14T01:24:29.027Z,59.88
2017-08-14T01:25:29.003Z,59.88
2017-08-14T01:26:28.982Z,59.69
2017-08-14T01:27:28.960Z,59.88
2017-08-14T01:28:28.939Z,59.78
2017-08-14T01:29:28.916Z,59.78
2017-08-14T01:30:28.890Z,60.17
2017-08-14T01:31:28.869Z,60.17
2017-08-14T01:32:28.851Z,60.17
2017-08-14T01:33:28.823Z,60.17
2017-08-14T01:34:28.803Z,60.07
2017-08-14T01:35:28.780Z,60.27
2017-08-14T01:36:28.764Z,60.17
2017-08-14T01:37:28.739Z,59.88
2017-08-14T01:38:28.715Z,60.07
2017-08-14T01:39:28.696Z,60.17
2017-08-14T01:40:28.673Z,60.17
2017-08-14T01:41:28.646Z,60.07
2017-08-14T01:42:28.625Z,60.27
2017-08-14T01:43:28.603Z,60.27
2017-08-14T01:44:28.582Z,59.97
2017-08-14T01:45:28.559Z,59.88
2017-08-14T01:46:28.535Z,59.69
2017-08-14T01:47:28.517Z,59.97
2017-08-14T01:48:28.491Z,60.27
2017-08-14T01:49:28.471Z,60.27
2017-08-14T01:50:28.449Z,59.97
2017-08-14T01:51:28.425Z,59.88
2017-08-14T01:52:28.404Z,60.17
2017-08-14T01:53:28.383Z,60.07
2017-08-14T01:54:28.358Z,59.97
2017-08-14T01:55:28.337Z,59.78
2017-08-14T01:56:28.312Z,60.07
2017-08-14T01:57:28.289Z,60.17
2017-08-14T01:58:28.270Z,60.36
2017-08-14T01:59:28.248Z,60.27
2017-08-14T02:00:28.224Z,59.88
2017-08-14T02:01:28.203Z,60.07
2017-08-14T02:02:28.179Z,60.17
2017-08-14T02:03:28.156Z,60.27
2017-08-14T02:04:28.138Z,59.97
2017-08-14T02:05:28.112Z,59.78
2017-08-14T02:06:28.089Z,60.17
2017-08-14T02:07:28.070Z,60.17
2017-08-14T02:08:28.046Z,59.88
2017-08-14T02:09:28.025Z,60.07
2017-08-14T02:10:28.004Z,60.17
2017-08-14T02:11:27.981Z,59.97
2017-08-14T02:12:27.955Z,60.07
2017-08-14T02:13:27.935Z,59.88
2017-08-14T02:14:27.912Z,60.04
2017-08-14T02:15:27.888Z,60.04
2017-08-14T02:16:27.871Z,59.78
2017-08-14T02:17:27.847Z,60.07
2017-08-14T02:18:27.823Z,60.27
2017-08-14T02:19:27.800Z,60.07
2017-08-14T02:20:27.777Z,59.94
2017-08-14T02:21:27.754Z,60.14
2017-08-14T02:22:27.738Z,60.14
2017-08-14T02:23:27.710Z,60.42
2017-08-14T02:24:27.689Z,59.94
2017-08-14T02:25:27.664Z,60.04
2017-08-14T02:26:27.647Z,59.94
2017-08-14T02:27:27.625Z,60.04
2017-08-14T02:28:27.603Z,59.94
2017-08-14T02:29:27.575Z,59.94
2017-08-14T02:30:27.557Z,60.14
2017-08-14T02:31:27.563Z,59.85
2017-08-14T02:32:27.511Z,60.17
2017-08-14T02:33:27.491Z,59.85
2017-08-14T02:34:27.465Z,60.24
2017-08-14T02:35:27.443Z,60.24
2017-08-14T02:36:27.423Z,60.24
2017-08-14T02:37:27.400Z,60.24
2017-08-14T02:38:27.378Z,59.94
2017-08-14T02:39:27.355Z,60.14
2017-08-14T02:40:27.332Z,60.04
2017-08-14T02:41:27.307Z,59.94
2017-08-14T02:42:27.288Z,60.33
2017-08-14T02:43:27.267Z,60.04
2017-08-14T02:44:27.249Z,59.75
2017-08-14T02:45:27.223Z,59.88
2017-08-14T02:46:27.199Z,59.78
2017-08-14T02:47:27.173Z,59.75
2017-08-14T02:48:27.152Z,59.88
2017-08-14T02:49:27.132Z,59.88
2017-08-14T02:50:27.106Z,59.78
2017-08-14T02:51:27.086Z,59.88
2017-08-14T02:52:27.061Z,59.78
2017-08-14T02:53:27.038Z,59.59
2017-08-14T02:54:27.020Z,59.69
2017-08-14T02:55:26.998Z,59.78
2017-08-14T02:56:26.972Z,59.88
2017-08-14T02:57:26.948Z,59.97
2017-08-14T02:58:26.927Z,59.40
2017-08-14T02:59:26.908Z,59.49
2017-08-14T03:00:26.886Z,59.59
2017-08-14T03:01:26.861Z,59.56
2017-08-14T03:02:26.837Z,60.04
2017-08-14T03:03:26.817Z,59.94
2017-08-14T03:04:26.795Z,59.56
2017-08-14T03:05:26.775Z,60.04
2017-08-14T03:06:26.750Z,59.85
2017-08-14T03:07:26.728Z,59.56
2017-08-14T03:08:26.707Z,60.04
2017-08-14T03:09:26.682Z,60.04
2017-08-14T03:10:26.663Z,59.56
2017-08-14T03:11:26.640Z,60.14
2017-08-14T03:12:26.614Z,59.85
2017-08-14T03:13:26.591Z,59.85
2017-08-14T03:14:26.579Z,59.47
2017-08-14T03:15:26.545Z,59.47
2017-08-14T03:16:26.528Z,59.17
2017-08-14T03:17:26.505Z,59.56
2017-08-14T03:18:26.482Z,59.37
2017-08-14T03:19:26.459Z,59.75
2017-08-14T03:20:26.435Z,59.66
2017-08-14T03:21:26.412Z,59.08
2017-08-14T03:22:26.390Z,58.92
2017-08-14T03:23:26.367Z,58.72
2017-08-14T03:24:26.347Z,58.24
2017-08-14T03:25:26.331Z,57.79
2017-08-14T03:26:26.303Z,57.79
2017-08-14T03:27:26.278Z,57.02
2017-08-14T03:28:26.259Z,57.31
2017-08-14T03:29:26.235Z,56.66
2017-08-14T03:30:26.215Z,57.14
2017-08-14T03:31:26.191Z,57.24
2017-08-14T03:32:26.168Z,56.85
2017-08-14T03:33:26.146Z,57.14
2017-08-14T03:34:26.122Z,56.95
2017-08-14T03:35:26.102Z,57.14
2017-08-14T03:36:26.079Z,57.14
2017-08-14T03:37:26.053Z,56.76
2017-08-14T03:38:26.036Z,57.05
2017-08-14T03:39:26.010Z,57.14
2017-08-14T03:40:25.989Z,56.85
2017-08-14T03:41:25.965Z,57.14
2017-08-14T03:42:25.947Z,57.14
2017-08-14T03:43:25.923Z,57.24
2017-08-14T03:44:25.902Z,57.27
2017-08-14T03:45:25.879Z,57.24
2017-08-14T03:46:25.860Z,56.88
2017-08-14T03:47:25.835Z,56.69
2017-08-14T03:48:25.812Z,57.17
2017-08-14T03:49:25.794Z,57.07
2017-08-14T03:50:25.768Z,57.17
2017-08-14T03:51:25.746Z,57.07
2017-08-14T03:52:25.724Z,57.17
2017-08-14T03:53:25.701Z,56.98
2017-08-14T03:54:25.685Z,57.17
2017-08-14T03:55:25.661Z,57.17
2017-08-14T03:56:25.639Z,56.69
2017-08-14T03:57:25.613Z,56.98
2017-08-14T03:58:25.594Z,57.07
2017-08-14T03:59:25.570Z,56.59
2017-08-14T04:00:25.550Z,56.69
2017-08-14T04:01:25.527Z,56.59
2017-08-14T04:02:25.504Z,56.40
2017-08-14T04:03:25.484Z,56.30
2017-08-14T04:04:25.460Z,56.59
2017-08-14T04:05:25.447Z,57.07
2017-08-14T04:06:25.421Z,56.59
2017-08-14T04:07:25.399Z,56.88
2017-08-14T04:08:25.376Z,57.27
2017-08-14T04:09:25.350Z,56.79
2017-08-14T04:10:25.329Z,56.49
2017-08-14T04:11:25.310Z,56.69
2017-08-14T04:12:25.290Z,56.49
2017-08-14T04:13:25.264Z,56.30
2017-08-14T04:14:25.242Z,56.79
2017-08-14T04:15:25.224Z,56.69
2017-08-14T04:16:25.202Z,56.49
2017-08-14T04:17:25.177Z,57.20
2017-08-14T04:18:25.156Z,57.07
2017-08-14T04:19:25.134Z,57.10
2017-08-14T04:20:25.111Z,57.17
2017-08-14T04:21:25.088Z,57.17
2017-08-14T04:22:25.066Z,57.27
2017-08-14T04:23:25.045Z,57.17
2017-08-14T04:24:25.026Z,57.10
2017-08-14T04:25:25.005Z,57.17
2017-08-14T04:26:24.983Z,57.29
2017-08-14T04:27:24.958Z,57.01
2017-08-14T04:28:24.937Z,56.98
2017-08-14T04:29:24.914Z,56.91
2017-08-14T04:30:24.896Z,57.10
2017-08-14T04:31:24.874Z,56.91
2017-08-14T04:32:24.853Z,56.72
2017-08-14T04:33:24.827Z,56.43
2017-08-14T04:34:24.810Z,56.62
2017-08-14T04:35:24.786Z,57.29
2017-08-14T04:36:24.765Z,57.20
2017-08-14T04:37:24.744Z,57.10
2017-08-14T04:38:24.719Z,56.91
2017-08-14T04:39:24.699Z,57.78
2017-08-14T04:40:24.691Z,57.59
2017-08-14T04:41:24.658Z,57.78
2017-08-14T04:42:24.632Z,57.68
2017-08-14T04:43:24.613Z,57.78
2017-08-14T04:44:24.593Z,57.49
2017-08-14T04:45:24.571Z,57.68
2017-08-14T04:46:24.548Z,57.68
2017-08-14T04:47:24.526Z,57.49
2017-08-14T04:48:24.501Z,57.49
2017-08-14T04:49:24.483Z,57.49
2017-08-14T04:50:24.458Z,57.78
2017-08-14T04:51:24.442Z,57.68
2017-08-14T04:52:24.416Z,57.87
2017-08-14T04:53:24.396Z,57.01
2017-08-14T04:54:24.376Z,57.10
2017-08-14T04:55:24.354Z,57.20
2017-08-14T04:56:24.335Z,57.20
2017-08-14T04:57:24.311Z,57.01
2017-08-14T04:58:24.288Z,57.97
2017-08-14T04:59:24.264Z,57.29
2017-08-14T05:00:24.243Z,57.87
2017-08-14T05:01:24.223Z,57.39
2017-08-14T05:02:24.202Z,57.29
2017-08-14T05:03:24.177Z,57.59
2017-08-14T05:04:24.157Z,57.78
2017-08-14T05:05:24.137Z,57.10
2017-08-14T05:06:24.113Z,57.59
2017-08-14T05:07:24.093Z,57.68
2017-08-14T05:08:24.070Z,58.07
2017-08-14T05:09:24.056Z,57.68
2017-08-14T05:10:24.032Z,57.39
2017-08-14T05:11:24.005Z,57.68
2017-08-14T05:12:23.985Z,57.39
2017-08-14T05:13:23.963Z,58.07
2017-08-14T05:14:23.941Z,58.07
2017-08-14T05:15:23.919Z,57.29
2017-08-14T05:16:23.900Z,57.29
2017-08-14T05:17:23.876Z,57.29
2017-08-14T05:18:23.855Z,57.29
2017-08-14T05:19:23.840Z,57.49
2017-08-14T05:20:23.812Z,58.36
2017-08-14T05:21:23.792Z,57.39
2017-08-14T05:22:23.771Z,57.78
2017-08-14T05:23:23.748Z,57.29
2017-08-14T05:24:23.726Z,57.68
2017-08-14T05:25:23.704Z,57.39
2017-08-14T05:26:23.684Z,57.59
2017-08-14T05:27:23.667Z,57.39
2017-08-14T05:28:23.648Z,57.39
2017-08-14T05:29:23.620Z,57.39
2017-08-14T05:30:23.601Z,57.39
2017-08-14T05:31:23.575Z,57.68
2017-08-14T05:32:23.559Z,57.68
2017-08-14T05:33:23.531Z,57.59
2017-08-14T05:34:23.515Z,57.59
2017-08-14T05:35:23.489Z,57.68
2017-08-14T05:36:23.472Z,57.20
2017-08-14T05:37:23.454Z,57.78
2017-08-14T05:38:23.424Z,57.39
2017-08-14T05:39:23.404Z,57.68
2017-08-14T05:40:23.382Z,57.78
2017-08-14T05:41:23.363Z,57.62
2017-08-14T05:42:23.338Z,57.62
2017-08-14T05:43:23.319Z,57.71
2017-08-14T05:44:23.301Z,57.59
2017-08-14T05:45:23.278Z,57.62
2017-08-14T05:46:23.255Z,57.52
2017-08-14T05:47:23.234Z,57.71
2017-08-14T05:48:23.210Z,57.59
2017-08-14T05:49:23.188Z,57.81
2017-08-14T05:50:23.167Z,57.68
2017-08-14T05:51:23.150Z,57.71
2017-08-14T05:52:23.125Z,57.42
2017-08-14T05:53:23.101Z,57.78
2017-08-14T05:54:23.080Z,57.81
2017-08-14T05:55:23.061Z,57.78
2017-08-14T05:56:23.041Z,57.52
2017-08-14T05:57:23.015Z,57.01
2017-08-14T05:58:22.999Z,57.59
2017-08-14T05:59:22.977Z,57.78
2017-08-14T06:00:22.954Z,57.23
2017-08-14T06:01:22.934Z,57.39
2017-08-14T06:02:22.908Z,57.71
2017-08-14T06:03:22.887Z,57.81
2017-08-14T06:04:22.866Z,57.04
2017-08-14T06:05:22.845Z,57.14
2017-08-14T06:06:22.823Z,57.42
2017-08-14T06:07:22.802Z,57.14
2017-08-14T06:08:22.785Z,56.94
2017-08-14T06:09:22.760Z,57.14
2017-08-14T06:10:22.737Z,57.32
2017-08-14T06:11:22.718Z,56.91
2017-08-14T06:12:22.698Z,57.39
2017-08-14T06:13:22.677Z,57.29
2017-08-14T06:14:22.653Z,56.84
2017-08-14T06:15:22.632Z,57.14
2017-08-14T06:16:22.613Z,57.23
2017-08-14T06:17:22.593Z,57.14
2017-08-14T06:18:22.564Z,57.14
2017-08-14T06:19:22.544Z,56.94
2017-08-14T06:20:22.524Z,56.94
2017-08-14T06:21:22.500Z,57.14
2017-08-14T06:22:22.481Z,56.65
2017-08-14T06:23:22.458Z,57.14
2017-08-14T06:24:22.436Z,56.84
2017-08-14T06:25:22.415Z,56.84
2017-08-14T06:26:22.398Z,56.84
2017-08-14T06:27:22.372Z,56.36
2017-08-14T06:28:22.353Z,56.36
2017-08-14T06:29:22.343Z,56.56
2017-08-14T06:30:22.311Z,56.84
2017-08-14T06:31:22.286Z,56.46
2017-08-14T06:32:22.264Z,56.46
2017-08-14T06:33:22.245Z,56.36
2017-08-14T06:34:22.221Z,56.46
2017-08-14T06:35:22.202Z,56.65
2017-08-14T06:36:22.184Z,56.84
2017-08-14T06:37:22.161Z,56.36
2017-08-14T06:38:22.140Z,56.56
2017-08-14T06:39:22.117Z,56.36
2017-08-14T06:40:22.098Z,56.65
2017-08-14T06:41:22.075Z,56.74
2017-08-14T06:42:22.050Z,56.74
2017-08-14T06:43:22.034Z,56.74
2017-08-14T06:44:22.007Z,56.36
2017-08-14T06:45:21.995Z,56.16
2017-08-14T06:46:21.973Z,56.36
2017-08-14T06:47:21.948Z,56.74
2017-08-14T06:48:21.929Z,56.26
2017-08-14T06:49:21.903Z,56.26
2017-08-14T06:50:21.878Z,56.26
2017-08-14T06:51:21.862Z,56.36
2017-08-14T06:52:21.840Z,56.36
2017-08-14T06:53:21.813Z,56.36
2017-08-14T06:54:21.797Z,56.65
2017-08-14T06:55:21.774Z,56.46
2017-08-14T06:56:21.751Z,56.46
2017-08-14T06:57:21.730Z,56.36
2017-08-14T06:58:21.707Z,56.16
2017-08-14T06:59:21.686Z,56.07
2017-08-14T07:00:21.665Z,55.98
2017-08-14T07:01:21.643Z,56.07
2017-08-14T07:02:21.622Z,55.78
2017-08-14T07:03:21.604Z,55.98
2017-08-14T07:04:21.579Z,55.98
2017-08-14T07:05:21.557Z,56.07
2017-08-14T07:06:21.539Z,55.98
2017-08-14T07:07:21.518Z,55.98
2017-08-14T07:08:21.499Z,55.98
2017-08-14T07:09:21.472Z,56.16
2017-08-14T07:10:21.456Z,55.98
2017-08-14T07:11:21.435Z,56.16
2017-08-14T07:12:21.412Z,55.98
2017-08-14T07:13:21.388Z,56.26
2017-08-14T07:14:21.374Z,56.07
2017-08-14T07:15:21.349Z,56.10
2017-08-14T07:16:21.325Z,55.88
2017-08-14T07:17:21.307Z,55.90
2017-08-14T07:18:21.285Z,56.10
2017-08-14T07:19:21.261Z,56.00
2017-08-14T07:20:21.242Z,56.00
2017-08-14T07:21:21.218Z,56.10
2017-08-14T07:22:21.197Z,55.90
2017-08-14T07:23:21.186Z,55.90
2017-08-14T07:24:21.160Z,56.20
2017-08-14T07:25:21.134Z,56.00
2017-08-14T07:26:21.112Z,56.10
2017-08-14T07:27:21.097Z,56.10
2017-08-14T07:28:21.071Z,56.10
2017-08-14T07:29:21.048Z,56.00
2017-08-14T07:30:21.028Z,56.00
2017-08-14T07:31:21.006Z,56.00
2017-08-14T07:32:20.988Z,55.81
2017-08-14T07:33:20.965Z,56.00
2017-08-14T07:34:20.947Z,55.81
2017-08-14T07:35:20.925Z,56.20
2017-08-14T07:36:20.902Z,56.10
2017-08-14T07:37:20.882Z,56.10
2017-08-14T07:38:20.861Z,56.10
2017-08-14T07:39:20.840Z,56.58
2017-08-14T07:40:20.819Z,56.58
2017-08-14T07:41:20.796Z,56.68
2017-08-14T07:42:20.777Z,56.39
2017-08-14T07:43:20.756Z,56.39
2017-08-14T07:44:20.735Z,55.90
2017-08-14T07:45:20.712Z,56.48
2017-08-14T07:46:20.697Z,56.68
2017-08-14T07:47:20.673Z,56.20
2017-08-14T07:48:20.648Z,56.39
2017-08-14T07:49:20.656Z,56.48
2017-08-14T07:50:20.605Z,56.48
2017-08-14T07:51:20.590Z,56.39
2017-08-14T07:52:20.568Z,56.48
2017-08-14T07:53:20.542Z,56.58
2017-08-14T07:54:20.525Z,56.58
2017-08-14T07:55:20.502Z,56.68
2017-08-14T07:56:20.481Z,56.58
2017-08-14T07:57:20.460Z,56.48
2017-08-14T07:58:20.437Z,56.68
2017-08-14T07:59:20.416Z,56.48
2017-08-14T08:00:20.398Z,56.48
2017-08-14T08:01:20.374Z,56.58
2017-08-14T08:02:20.358Z,56.58
2017-08-14T08:03:20.334Z,56.58
2017-08-14T08:04:20.311Z,56.58
2017-08-14T08:05:20.290Z,56.48
2017-08-14T08:06:20.269Z,56.68
2017-08-14T08:07:20.250Z,56.20
2017-08-14T08:08:20.227Z,56.58
2017-08-14T08:09:20.207Z,56.58
2017-08-14T08:10:20.187Z,56.58
2017-08-14T08:11:20.172Z,56.58
2017-08-14T08:12:20.145Z,56.58
2017-08-14T08:13:20.129Z,56.68
2017-08-14T08:14:20.105Z,56.20
2017-08-14T08:15:20.084Z,56.58
2017-08-14T08:16:20.064Z,56.48
2017-08-14T08:17:20.041Z,56.58
2017-08-14T08:18:20.021Z,56.68
2017-08-14T08:19:19.998Z,56.68
2017-08-14T08:20:19.975Z,56.48
2017-08-14T08:21:19.953Z,56.58
2017-08-14T08:22:19.937Z,56.48
2017-08-14T08:23:19.912Z,56.48
2017-08-14T08:24:19.896Z,56.68
2017-08-14T08:25:19.872Z,56.68
2017-08-14T08:26:19.848Z,56.48
2017-08-14T08:27:19.829Z,56.68
2017-08-14T08:28:19.806Z,56.58
2017-08-14T08:29:19.785Z,56.68
2017-08-14T08:30:19.766Z,56.58
2017-08-14T08:31:19.745Z,56.58
2017-08-14T08:32:19.728Z,56.48
2017-08-14T08:33:19.702Z,56.48
2017-08-14T08:34:19.681Z,56.58
2017-08-14T08:35:19.661Z,56.68
2017-08-14T08:36:19.643Z,56.48
2017-08-14T08:37:19.645Z,56.58
2017-08-14T08:38:19.598Z,56.58
2017-08-14T08:39:19.578Z,56.20
2017-08-14T08:40:19.556Z,56.58
2017-08-14T08:41:19.535Z,56.29
2017-08-14T08:42:19.521Z,56.29
2017-08-14T08:43:19.496Z,56.51
2017-08-14T08:44:19.472Z,56.48
2017-08-14T08:45:19.450Z,56.48
2017-08-14T08:46:19.432Z,56.39
2017-08-14T08:47:19.413Z,56.58
2017-08-14T08:48:19.390Z,56.58
2017-08-14T08:49:19.370Z,56.29
2017-08-14T08:50:19.348Z,56.10
2017-08-14T08:51:19.329Z,56.10
2017-08-14T08:52:19.307Z,56.39
2017-08-14T08:53:19.283Z,56.10
2017-08-14T08:54:19.264Z,56.29
2017-08-14T08:55:19.241Z,56.10
2017-08-14T08:56:19.224Z,56.58
2017-08-14T08:57:19.203Z,56.48
2017-08-14T08:58:19.185Z,56.48
2017-08-14T08:59:19.158Z,56.39
2017-08-14T09:00:19.136Z,56.39
2017-08-14T09:01:19.119Z,56.48
2017-08-14T09:02:19.097Z,56.29
2017-08-14T09:03:19.077Z,56.48
2017-08-14T09:04:19.057Z,56.48
2017-08-14T09:05:19.030Z,56.48
2017-08-14T09:06:19.010Z,56.32
2017-08-14T09:07:18.991Z,56.48
2017-08-14T09:08:18.969Z,56.29
2017-08-14T09:09:18.947Z,56.29
2017-08-14T09:10:18.927Z,56.20
2017-08-14T09:11:18.908Z,56.48
2017-08-14T09:12:18.885Z,56.68
2017-08-14T09:13:18.863Z,56.58
2017-08-14T09:14:18.845Z,56.29
2017-08-14T09:15:18.823Z,56.29
2017-08-14T09:16:18.805Z,56.29
2017-08-14T09:17:18.778Z,56.29
2017-08-14T09:18:18.763Z,56.29
2017-08-14T09:19:18.742Z,56.48
2017-08-14T09:20:18.718Z,56.39
2017-08-14T09:21:18.699Z,56.39
2017-08-14T09:22:18.678Z,56.48
2017-08-14T09:23:18.656Z,56.48
2017-08-14T09:24:18.638Z,56.29
2017-08-14T09:25:18.615Z,56.58
2017-08-14T09:26:18.594Z,56.58
2017-08-14T09:27:18.578Z,56.29
2017-08-14T09:28:18.549Z,56.20
2017-08-14T09:29:18.532Z,56.29
2017-08-14T09:30:18.508Z,56.48
2017-08-14T09:31:18.488Z,56.68
2017-08-14T09:32:18.467Z,56.10
2017-08-14T09:33:18.443Z,56.20
2017-08-14T09:34:18.423Z,56.39
2017-08-14T09:35:18.403Z,56.39
2017-08-14T09:36:18.385Z,56.39
2017-08-14T09:37:18.359Z,56.61
2017-08-14T09:38:18.343Z,56.48
2017-08-14T09:39:18.318Z,55.81
2017-08-14T09:40:18.298Z,56.00
2017-08-14T09:41:18.280Z,56.41
2017-08-14T09:42:18.256Z,56.68
2017-08-14T09:43:18.261Z,56.13
2017-08-14T09:44:18.212Z,55.93
2017-08-14T09:45:18.195Z,55.90
2017-08-14T09:46:18.174Z,56.00
2017-08-14T09:47:18.154Z,56.00
2017-08-14T09:48:18.133Z,55.90
2017-08-14T09:49:18.112Z,56.29
2017-08-14T09:50:18.090Z,56.10
2017-08-14T09:51:18.067Z,56.10
2017-08-14T09:52:18.046Z,56.00
2017-08-14T09:53:18.025Z,55.90
2017-08-14T09:54:18.003Z,55.90
2017-08-14T09:55:17.982Z,55.83
2017-08-14T09:56:17.963Z,56.10
2017-08-14T09:57:17.942Z,55.90
2017-08-14T09:58:17.921Z,56.10
2017-08-14T09:59:17.900Z,56.10
2017-08-14T10:00:17.877Z,56.10
2017-08-14T10:01:17.858Z,56.20
2017-08-14T10:02:17.836Z,56.20
2017-08-14T10:03:17.819Z,56.03
2017-08-14T10:04:17.797Z,56.13
2017-08-14T10:05:17.774Z,56.03
2017-08-14T10:06:17.754Z,55.42
2017-08-14T10:07:17.729Z,56.03
2017-08-14T10:08:17.709Z,55.23
2017-08-14T10:09:17.687Z,55.04
2017-08-14T10:10:17.672Z,55.81
2017-08-14T10:11:17.647Z,56.00
2017-08-14T10:12:17.628Z,55.71
2017-08-14T10:13:17.606Z,55.42
2017-08-14T10:14:17.587Z,55.62
2017-08-14T10:15:17.570Z,55.52
2017-08-14T10:16:17.546Z,55.81
2017-08-14T10:17:17.525Z,55.52
2017-08-14T10:18:17.505Z,55.74
2017-08-14T10:19:17.479Z,55.42
2017-08-14T10:20:17.459Z,55.42
2017-08-14T10:21:17.437Z,55.65
2017-08-14T10:22:17.416Z,55.52
2017-08-14T10:23:17.397Z,55.65
2017-08-14T10:24:17.375Z,55.71
2017-08-14T10:25:17.358Z,55.81
2017-08-14T10:26:17.332Z,55.62
2017-08-14T10:27:17.314Z,55.71
2017-08-14T10:28:17.294Z,55.81
2017-08-14T10:29:17.271Z,55.45
2017-08-14T10:30:17.251Z,55.52
2017-08-14T10:31:17.230Z,55.65
2017-08-14T10:32:17.234Z,55.71
2017-08-14T10:33:17.191Z,55.65
2017-08-14T10:34:17.168Z,55.42
2017-08-14T10:35:17.145Z,55.55
2017-08-14T10:36:17.129Z,55.83
2017-08-14T10:37:17.102Z,55.62
2017-08-14T10:38:17.085Z,55.42
2017-08-14T10:39:17.065Z,55.23
2017-08-14T10:40:17.041Z,55.33
2017-08-14T10:41:17.019Z,54.68
2017-08-14T10:42:17.000Z,55.16
2017-08-14T10:43:16.982Z,54.87
2017-08-14T10:44:16.960Z,54.87
2017-08-14T10:45:16.935Z,55.16
2017-08-14T10:46:16.922Z,54.84
2017-08-14T10:47:16.895Z,54.77
2017-08-14T10:48:16.873Z,54.84
2017-08-14T10:49:16.850Z,55.35
2017-08-14T10:50:16.834Z,55.26
2017-08-14T10:51:16.815Z,55.13
2017-08-14T10:52:16.789Z,54.87
2017-08-14T10:53:16.771Z,55.26
2017-08-14T10:54:16.752Z,55.42
2017-08-14T10:55:16.729Z,55.83
2017-08-14T10:56:16.709Z,55.16
2017-08-14T10:57:16.687Z,55.13
2017-08-14T10:58:16.670Z,55.07
2017-08-14T10:59:16.643Z,55.16
2017-08-14T11:00:16.625Z,55.16
2017-08-14T11:01:16.602Z,54.68
2017-08-14T11:02:16.582Z,54.87
2017-08-14T11:03:16.567Z,54.68
2017-08-14T11:04:16.543Z,55.35
2017-08-14T11:05:16.520Z,55.07
2017-08-14T11:06:16.501Z,54.97
2017-08-14T11:07:16.478Z,55.16
2017-08-14T11:08:16.460Z,54.97
2017-08-14T11:09:16.436Z,55.07
2017-08-14T11:10:16.421Z,55.07
2017-08-14T11:11:16.394Z,55.07
2017-08-14T11:12:16.376Z,54.87
2017-08-14T11:13:16.351Z,55.16
2017-08-14T11:14:16.333Z,52.84
2017-08-14T11:15:16.309Z,51.87
2017-08-14T11:16:16.289Z,51.56
2017-08-14T11:17:16.271Z,50.91
2017-08-14T11:18:16.248Z,50.89
2017-08-14T11:19:16.229Z,52.33
2017-08-14T11:20:16.205Z,51.68
2017-08-14T11:21:16.183Z,50.11
2017-08-14T11:22:16.166Z,51.07
2017-08-14T11:23:16.145Z,51.10
2017-08-14T11:24:16.130Z,49.24
2017-08-14T11:25:16.101Z,49.75
2017-08-14T11:26:16.081Z,48.49
2017-08-14T11:27:16.063Z,46.66
2017-08-14T11:28:16.039Z,48.79
2017-08-14T11:29:16.015Z,48.66
2017-08-14T11:30:15.999Z,49.27
2017-08-14T11:31:15.978Z,50.04
2017-08-14T11:32:15.958Z,50.33
2017-08-14T11:33:15.937Z,50.89
2017-08-14T11:34:15.916Z,51.68
2017-08-14T11:35:15.894Z,51.29
2017-08-14T11:36:15.869Z,51.95
2017-08-14T11:37:15.851Z,51.65
2017-08-14T11:38:15.831Z,51.39
2017-08-14T11:39:15.810Z,50.91
2017-08-14T11:40:15.786Z,50.79
2017-08-14T11:41:15.762Z,51.20
2017-08-14T11:42:15.746Z,51.75
2017-08-14T11:43:15.723Z,51.49
2017-08-14T11:44:15.707Z,50.50
2017-08-14T11:45:15.685Z,51.37
2017-08-14T11:46:15.665Z,51.10
2017-08-14T11:47:15.643Z,51.07
2017-08-14T11:48:15.619Z,51.17
2017-08-14T11:49:15.600Z,50.52
2017-08-14T11:50:15.575Z,51.07
2017-08-14T11:51:15.556Z,51.29
2017-08-14T11:52:15.535Z,51.65
2017-08-14T11:53:15.515Z,51.78
2017-08-14T11:54:15.495Z,52.04
2017-08-14T11:55:15.475Z,52.04
2017-08-14T11:56:15.458Z,51.97
2017-08-14T11:57:15.434Z,51.68
2017-08-14T11:58:15.414Z,51.78
2017-08-14T11:59:15.393Z,51.87
2017-08-14T12:00:15.369Z,51.68
2017-08-14T12:01:15.347Z,51.75
2017-08-14T12:02:15.326Z,50.52
2017-08-14T12:03:15.307Z,51.20
2017-08-14T12:04:15.284Z,50.81
2017-08-14T12:05:15.265Z,51.29
2017-08-14T12:06:15.245Z,51.39
2017-08-14T12:07:15.223Z,50.71
2017-08-14T12:08:15.203Z,51.10
2017-08-14T12:09:15.180Z,51.01
2017-08-14T12:10:15.162Z,50.91
2017-08-14T12:11:15.141Z,51.10
2017-08-14T12:12:15.117Z,51.01
2017-08-14T12:13:15.097Z,51.78
2017-08-14T12:14:15.076Z,51.68
2017-08-14T12:15:15.054Z,52.07
2017-08-14T12:16:15.036Z,52.07
2017-08-14T12:17:15.010Z,52.04
2017-08-14T12:18:14.992Z,52.36
2017-08-14T12:19:14.970Z,52.26
2017-08-14T12:20:14.955Z,52.45
2017-08-14T12:21:14.927Z,52.55
2017-08-14T12:22:14.908Z,52.65
2017-08-14T12:23:14.890Z,52.65
2017-08-14T12:24:14.865Z,52.55
2017-08-14T12:25:14.845Z,52.45
2017-08-14T12:26:14.824Z,52.43
2017-08-14T12:27:14.801Z,52.43
2017-08-14T12:28:14.780Z,52.84
2017-08-14T12:29:14.760Z,52.07
2017-08-14T12:30:14.740Z,52.55
2017-08-14T12:31:14.718Z,52.55
2017-08-14T12:32:14.698Z,52.26
2017-08-14T12:33:14.680Z,52.45
2017-08-14T12:34:14.659Z,52.07
2017-08-14T12:35:14.634Z,52.36
2017-08-14T12:36:14.614Z,52.17
2017-08-14T12:37:14.596Z,52.26
2017-08-14T12:38:14.574Z,52.26
2017-08-14T12:39:14.553Z,52.65
2017-08-14T12:40:14.532Z,52.17
2017-08-14T12:41:14.511Z,52.45
2017-08-14T12:42:14.490Z,51.97
2017-08-14T12:43:14.469Z,52.26
2017-08-14T12:44:14.449Z,52.36
2017-08-14T12:45:14.423Z,52.26
2017-08-14T12:46:14.404Z,52.36
2017-08-14T12:47:14.384Z,52.26
2017-08-14T12:48:14.363Z,52.55
2017-08-14T12:49:14.338Z,52.26
2017-08-14T12:50:14.320Z,52.45
2017-08-14T12:51:14.303Z,52.26
2017-08-14T12:52:14.279Z,52.45